Time;durP1;ratioP1;P1;durP2;ratioP2;P2;SDS_P1;SDS_P2;PMS_P1;PMS_P2;Temp;Humidity;BMP_temperature;BMP_pressure;BME280_temperature;BME280_humidity;BME280_pressure;Samples;Min_cycle;Max_cycle;Signal;HPM_P1;HPM_P2
2022/06/10 00:02:00;;;;;;;2.20;2.00;;;14.80;99.90;;;;;;5046006;28;21025;-50
2022/06/10 00:04:27;;;;;;;3.17;2.23;;;14.80;99.90;;;;;;5047929;28;20454;-49
2022/06/10 00:06:53;;;;;;;1.30;1.30;;;14.80;99.90;;;;;;5049835;28;20998;-49
2022/06/10 00:09:20;;;;;;;2.20;1.93;;;14.80;99.90;;;;;;5046883;28;20454;-48
2022/06/10 00:11:46;;;;;;;2.00;1.90;;;14.90;99.90;;;;;;5044637;28;20539;-49
2022/06/10 00:14:14;;;;;;;3.00;2.07;;;14.90;99.90;;;;;;5047689;28;21024;-49
2022/06/10 00:16:41;;;;;;;7.33;2.00;;;14.90;99.90;;;;;;5050696;28;20554;-50
2022/06/10 00:19:07;;;;;;;4.53;2.17;;;15.00;99.90;;;;;;5050512;28;20453;-50
2022/06/10 00:21:34;;;;;;;2.13;1.70;;;15.00;99.90;;;;;;5048749;28;20458;-49
2022/06/10 00:24:01;;;;;;;1.77;1.50;;;15.00;99.90;;;;;;5046094;28;20453;-49
2022/06/10 00:26:27;;;;;;;1.87;1.70;;;15.00;99.90;;;;;;5047651;28;20537;-49
2022/06/10 00:28:54;;;;;;;6.13;1.73;;;15.00;99.90;;;;;;5049660;28;20877;-50
2022/06/10 00:31:22;;;;;;;4.00;1.70;;;15.00;99.90;;;;;;5048885;28;20527;-49
2022/06/10 00:33:48;;;;;;;1.70;1.50;;;14.90;99.90;;;;;;5047796;28;20528;-49
2022/06/10 00:36:15;;;;;;;1.43;1.33;;;14.90;99.90;;;;;;5051433;28;20547;-49
2022/06/10 00:38:42;;;;;;;3.27;1.30;;;14.90;99.90;;;;;;5049454;28;20461;-49
2022/06/10 00:41:09;;;;;;;1.80;1.70;;;14.80;99.90;;;;;;5044290;28;20888;-49
2022/06/10 00:43:36;;;;;;;2.20;1.50;;;14.70;99.90;;;;;;5048427;28;20457;-50
2022/06/10 00:46:13;;;;;;;1.60;1.50;;;14.70;99.90;;;;;;5043980;28;20450;-49
2022/06/10 00:48:48;;;;;;;2.10;1.83;;;14.60;99.90;;;;;;5046537;28;20535;-50
2022/06/10 00:51:20;;;;;;;1.20;1.20;;;14.50;99.90;;;;;;5047526;28;20819;-50
2022/06/10 00:53:52;;;;;;;2.47;1.93;;;14.40;99.90;;;;;;5046472;28;20472;-49
2022/06/10 00:56:22;;;;;;;12.80;1.30;;;14.40;99.90;;;;;;5047408;28;20524;-50
2022/06/10 00:58:53;;;;;;;1.83;1.70;;;14.30;99.90;;;;;;5044987;28;20534;-50
2022/06/10 01:01:22;;;;;;;2.73;1.63;;;14.20;99.90;;;;;;5045649;28;20687;-50
2022/06/10 01:03:50;;;;;;;3.47;1.80;;;14.20;99.90;;;;;;5038743;28;20467;-49
2022/06/10 01:06:17;;;;;;;1.10;1.10;;;14.10;99.90;;;;;;5048530;28;20591;-49
2022/06/10 01:08:46;;;;;;;4.23;1.67;;;14.10;99.90;;;;;;5045284;28;21036;-50
2022/06/10 01:11:32;;;;;;;1.47;1.47;;;14.00;99.90;;;;;;5046083;28;20514;-49
2022/06/10 01:14:08;;;;;;;2.33;1.90;;;14.00;99.90;;;;;;5039379;28;20461;-50
2022/06/10 01:16:42;;;;;;;1.63;1.53;;;13.90;99.90;;;;;;5035412;28;20485;-49
2022/06/10 01:19:31;;;;;;;1.73;1.63;;;13.80;99.90;;;;;;5046995;28;20504;-49
2022/06/10 01:22:31;;;;;;;2.50;1.80;;;13.80;99.90;;;;;;5047146;28;20531;-49
2022/06/10 01:25:33;;;;;;;3.73;1.87;;;13.70;99.90;;;;;;5039387;28;20458;-49
2022/06/10 01:28:09;;;;;;;1.80;1.50;;;13.70;99.90;;;;;;5048455;28;20507;-49
2022/06/10 01:31:03;;;;;;;1.63;1.53;;;13.70;99.90;;;;;;5041188;28;20489;-49
2022/06/10 01:34:00;;;;;;;1.77;1.67;;;13.70;99.90;;;;;;5045741;28;20465;-49
2022/06/10 01:36:39;;;;;;;2.03;1.93;;;13.80;99.90;;;;;;5035996;28;20478;-49
2022/06/10 01:39:14;;;;;;;3.10;2.80;;;13.80;99.90;;;;;;5046055;28;20465;-49
2022/06/10 01:41:47;;;;;;;3.07;2.10;;;13.80;99.90;;;;;;5043234;28;20453;-49
2022/06/10 01:44:21;;;;;;;2.53;1.93;;;13.80;99.90;;;;;;5049862;28;20986;-49
2022/06/10 01:46:53;;;;;;;4.20;2.70;;;13.80;99.90;;;;;;5048988;28;20474;-50
2022/06/10 01:49:25;;;;;;;2.60;2.40;;;13.80;99.90;;;;;;5050334;28;20449;-50
2022/06/10 01:52:00;;;;;;;2.17;2.00;;;13.70;99.90;;;;;;5042323;28;20536;-49
2022/06/10 01:54:32;;;;;;;2.50;2.30;;;13.60;99.90;;;;;;5049284;28;20830;-49
2022/06/10 01:57:04;;;;;;;2.23;2.00;;;13.60;99.90;;;;;;5048405;28;20512;-49
2022/06/10 01:59:35;;;;;;;2.30;2.20;;;13.60;99.90;;;;;;5048143;28;20519;-49
2022/06/10 02:02:07;;;;;;;2.57;2.37;;;13.60;99.90;;;;;;5042555;28;20458;-49
2022/06/10 02:04:39;;;;;;;2.70;2.50;;;13.60;99.90;;;;;;5048977;28;20504;-48
2022/06/10 02:07:09;;;;;;;2.40;2.30;;;13.50;99.90;;;;;;5045714;28;20841;-49
2022/06/10 02:09:40;;;;;;;2.97;2.43;;;13.50;99.90;;;;;;5045869;28;20466;-49
2022/06/10 02:12:13;;;;;;;6.00;2.17;;;13.50;99.90;;;;;;5043919;28;20482;-50
2022/06/10 02:14:44;;;;;;;2.47;2.27;;;13.50;99.90;;;;;;5047732;28;20461;-49
2022/06/10 02:17:14;;;;;;;2.70;2.50;;;13.50;99.90;;;;;;5046960;28;20535;-50
2022/06/10 02:19:45;;;;;;;2.77;2.63;;;13.60;99.90;;;;;;5043419;28;20960;-49
2022/06/10 02:22:15;;;;;;;2.80;2.10;;;13.50;99.90;;;;;;5048521;28;20451;-49
2022/06/10 02:24:45;;;;;;;2.87;2.27;;;13.50;99.90;;;;;;5046542;28;20462;-49
2022/06/10 02:27:15;;;;;;;2.63;2.33;;;13.40;99.90;;;;;;5050583;28;20477;-49
2022/06/10 02:29:50;;;;;;;6.63;2.57;;;13.40;99.90;;;;;;5049211;28;20457;-49
2022/06/10 02:32:18;;;;;;;2.87;2.57;;;13.30;99.90;;;;;;5048463;28;20570;-50
2022/06/10 02:34:45;;;;;;;6.70;2.70;;;13.20;99.90;;;;;;5036441;28;20462;-49
2022/06/10 02:37:20;;;;;;;5.30;2.37;;;13.10;99.90;;;;;;5049312;28;20485;-49
2022/06/10 02:39:54;;;;;;;3.10;2.17;;;13.10;99.90;;;;;;5049534;28;20823;-50
2022/06/10 02:42:27;;;;;;;3.00;2.50;;;13.00;99.90;;;;;;5049043;28;20445;-49
2022/06/10 02:45:02;;;;;;;4.40;2.10;;;13.00;99.90;;;;;;5051106;28;20519;-49
2022/06/10 02:47:40;;;;;;;2.80;2.60;;;13.00;99.90;;;;;;5050965;28;20484;-49
2022/06/10 02:50:08;;;;;;;4.83;3.10;;;12.90;99.90;;;;;;5046461;28;20477;-49
2022/06/10 02:52:36;;;;;;;6.93;2.90;;;12.90;99.90;;;;;;5046935;28;20488;-49
2022/06/10 02:55:04;;;;;;;2.43;2.27;;;12.80;96.30;;;;;;5053742;28;20519;-49
2022/06/10 03:03:12;;;;;;;2.70;2.47;;;12.70;91.30;;;;;;5045805;28;20461;-49
2022/06/10 03:05:45;;;;;;;6.03;2.83;;;12.60;81.90;;;;;;5051421;28;20465;-50
2022/06/10 03:08:23;;;;;;;4.33;2.20;;;12.50;90.00;;;;;;5050546;28;20556;-50
2022/06/10 03:11:00;;;;;;;7.50;2.47;;;12.60;89.60;;;;;;5046266;28;20513;-50
2022/06/10 03:13:37;;;;;;;2.50;2.30;;;12.50;93.90;;;;;;5049431;28;20534;-49
2022/06/10 03:16:28;;;;;;;2.97;2.63;;;12.50;82.90;;;;;;5050353;28;20465;-51
2022/06/10 03:19:04;;;;;;;2.43;2.30;;;12.50;91.90;;;;;;5047208;28;20560;-49
2022/06/10 03:21:42;;;;;;;2.27;2.17;;;12.40;95.90;;;;;;5048440;28;20519;-50
2022/06/10 03:24:14;;;;;;;3.70;2.57;;;12.40;95.60;;;;;;5050637;28;20457;-50
2022/06/10 03:26:49;;;;;;;2.80;2.57;;;12.30;91.80;;;;;;5050148;28;21058;-50
2022/06/10 03:29:22;;;;;;;2.77;2.20;;;12.40;87.30;;;;;;5041458;28;20539;-49
2022/06/10 03:31:53;;;;;;;3.10;2.37;;;12.30;87.00;;;;;;5042244;28;20509;-49
2022/06/10 03:34:26;;;;;;;2.70;2.50;;;12.30;82.20;;;;;;5049634;28;20971;-49
2022/06/10 03:36:57;;;;;;;3.73;2.77;;;12.30;82.10;;;;;;5049393;28;21050;-49
2022/06/10 03:39:25;;;;;;;6.73;2.80;;;12.30;77.00;;;;;;5050818;28;20489;-49
2022/06/10 03:41:59;;;;;;;5.83;2.60;;;12.20;76.90;;;;;;5046382;28;20450;-48
2022/06/10 03:44:28;;;;;;;2.43;2.23;;;12.30;73.80;;;;;;5044219;28;20794;-47
2022/06/10 03:46:56;;;;;;;4.43;2.13;;;12.30;72.00;;;;;;5049146;28;20483;-48
2022/06/10 03:49:30;;;;;;;2.33;2.13;;;12.30;69.90;;;;;;5051263;28;20462;-49
2022/06/10 03:51:57;;;;;;;2.83;2.73;;;12.40;74.30;;;;;;5047822;28;20474;-48
2022/06/10 03:54:24;;;;;;;2.43;2.20;;;12.40;71.50;;;;;;5052895;28;20466;-48
2022/06/10 03:56:52;;;;;;;2.50;2.30;;;12.40;73.80;;;;;;5043272;28;20481;-48
2022/06/10 03:59:19;;;;;;;2.70;2.50;;;12.40;72.60;;;;;;5048209;28;20488;-48
2022/06/10 04:01:45;;;;;;;2.77;2.57;;;12.50;72.50;;;;;;5044410;28;20462;-49
2022/06/10 04:04:12;;;;;;;3.40;2.63;;;12.50;68.30;;;;;;5049474;28;20471;-48
2022/06/10 04:06:40;;;;;;;7.37;2.80;;;12.50;66.00;;;;;;5052476;28;20535;-48
2022/06/10 04:09:07;;;;;;;3.00;2.70;;;12.60;64.30;;;;;;5048948;28;20516;-48
2022/06/10 04:11:33;;;;;;;2.90;2.70;;;12.80;60.70;;;;;;5048323;28;20481;-49
2022/06/10 04:14:00;;;;;;;2.83;2.70;;;12.80;61.90;;;;;;5055769;28;20462;-49
2022/06/10 04:16:28;;;;;;;3.83;2.90;;;12.90;61.20;;;;;;5051743;28;21007;-48
2022/06/10 04:18:55;;;;;;;4.33;2.80;;;13.00;64.20;;;;;;5051807;28;20472;-49
2022/06/10 04:21:22;;;;;;;3.37;3.07;;;13.10;62.90;;;;;;5050059;28;20554;-49
2022/06/10 04:23:49;;;;;;;5.23;3.00;;;13.10;64.00;;;;;;5050852;28;20461;-49
2022/06/10 04:26:16;;;;;;;6.37;3.30;;;13.20;70.10;;;;;;5052152;28;20481;-48
2022/06/10 04:28:43;;;;;;;4.70;3.03;;;13.30;69.60;;;;;;5050013;28;20507;-49
2022/06/10 04:31:09;;;;;;;7.30;3.87;;;13.40;72.70;;;;;;5047107;28;20814;-49
2022/06/10 04:33:37;;;;;;;3.43;3.13;;;13.40;72.90;;;;;;5049724;28;20798;-49
2022/06/10 04:36:04;;;;;;;6.80;3.93;;;13.50;73.90;;;;;;5050858;28;20536;-49
2022/06/10 04:38:32;;;;;;;10.50;3.70;;;13.60;75.00;;;;;;5048743;28;20935;-49
2022/06/10 04:41:00;;;;;;;10.40;3.90;;;13.60;74.50;;;;;;5047000;28;20485;-49
2022/06/10 04:43:27;;;;;;;6.17;3.67;;;13.60;78.60;;;;;;5047601;28;20539;-49
2022/06/10 04:45:57;;;;;;;7.13;4.10;;;13.70;78.90;;;;;;5047538;28;20464;-49
2022/06/10 04:48:24;;;;;;;12.47;3.67;;;13.80;79.90;;;;;;5044752;28;20462;-49
2022/06/10 04:50:50;;;;;;;7.00;3.73;;;13.80;82.30;;;;;;5040394;28;20474;-49
2022/06/10 04:53:17;;;;;;;7.27;4.40;;;13.90;82.50;;;;;;5048301;28;20859;-49
2022/06/10 04:55:44;;;;;;;7.50;3.60;;;13.90;82.60;;;;;;5046967;28;20458;-49
2022/06/10 04:58:12;;;;;;;6.43;4.27;;;13.90;84.40;;;;;;5037421;28;20991;-49
2022/06/10 05:00:42;;;;;;;8.30;3.90;;;14.00;87.00;;;;;;5045300;28;20459;-49
2022/06/10 05:03:09;;;;;;;9.17;5.10;;;14.00;86.90;;;;;;5047521;28;20454;-49
2022/06/10 05:05:37;;;;;;;11.27;4.50;;;14.00;86.50;;;;;;5044026;28;20470;-48
2022/06/10 05:08:05;;;;;;;12.53;4.00;;;14.10;87.90;;;;;;5042191;28;20478;-54
2022/06/10 05:10:32;;;;;;;9.30;4.67;;;14.20;89.60;;;;;;5045737;28;20461;-49
2022/06/10 05:12:59;;;;;;;10.40;4.30;;;14.30;93.50;;;;;;5044779;28;21017;-49
2022/06/10 05:15:28;;;;;;;10.10;4.03;;;14.30;93.70;;;;;;5045366;28;20512;-49
2022/06/10 05:17:57;;;;;;;14.80;4.20;;;14.40;96.20;;;;;;5043913;28;20489;-49
2022/06/10 05:20:26;;;;;;;6.23;3.90;;;14.50;99.90;;;;;;5046829;28;20807;-49
2022/06/10 05:22:53;;;;;;;7.43;3.20;;;14.50;99.90;;;;;;5046484;28;20881;-49
2022/06/10 05:25:20;;;;;;;10.30;3.50;;;14.60;99.90;;;;;;5046946;28;20492;-49
2022/06/10 05:27:46;;;;;;;14.07;3.83;;;14.70;99.90;;;;;;5047344;28;20921;-49
2022/06/10 05:30:17;;;;;;;8.53;3.47;;;14.80;99.90;;;;;;5045427;28;20465;-49
2022/06/10 05:32:45;;;;;;;7.93;3.17;;;14.80;99.90;;;;;;5041899;28;20515;-49
2022/06/10 05:35:12;;;;;;;9.43;3.63;;;14.90;99.90;;;;;;5038366;28;20502;-49
2022/06/10 05:37:39;;;;;;;6.83;2.60;;;15.00;99.90;;;;;;5041439;28;20568;-50
2022/06/10 05:40:07;;;;;;;9.50;3.03;;;15.00;99.90;;;;;;5040116;28;20810;-49
2022/06/10 05:42:33;;;;;;;6.43;2.47;;;15.10;99.90;;;;;;5043912;28;20450;-49
2022/06/10 05:45:00;;;;;;;6.43;2.30;;;15.10;99.90;;;;;;5046618;28;20465;-49
2022/06/10 05:47:29;;;;;;;6.87;3.13;;;15.10;99.90;;;;;;5048413;28;20979;-49
2022/06/10 05:50:00;;;;;;;2.57;2.00;;;15.10;99.90;;;;;;5044048;28;20458;-50
2022/06/10 05:52:30;;;;;;;4.97;1.93;;;15.20;99.90;;;;;;5044502;28;21057;-49
2022/06/10 05:55:00;;;;;;;6.10;2.17;;;15.20;99.90;;;;;;5048440;28;20450;-50
2022/06/10 05:57:27;;;;;;;13.90;2.73;;;15.30;99.90;;;;;;5049347;28;20980;-50
2022/06/10 05:59:54;;;;;;;9.70;2.43;;;15.30;99.90;;;;;;5049662;28;20987;-49
2022/06/10 06:02:22;;;;;;;6.00;2.63;;;15.30;99.90;;;;;;5047687;28;20861;-50
2022/06/10 06:04:49;;;;;;;7.87;2.47;;;15.40;99.90;;;;;;5049608;28;20442;-50
2022/06/10 06:07:20;;;;;;;6.90;1.97;;;15.40;99.90;;;;;;5045003;28;20647;-49
2022/06/10 06:09:47;;;;;;;5.30;1.83;;;15.50;99.90;;;;;;5048667;28;20461;-49
2022/06/10 06:12:14;;;;;;;11.33;2.23;;;15.60;99.90;;;;;;5048680;28;20914;-51
2022/06/10 06:14:40;;;;;;;5.07;1.70;;;15.60;99.90;;;;;;5049803;28;20442;-49
2022/06/10 06:17:08;;;;;;;5.33;1.90;;;15.70;99.90;;;;;;5048505;28;21056;-50
2022/06/10 06:19:35;;;;;;;5.07;2.13;;;15.70;99.90;;;;;;5037493;28;20446;-49
2022/06/10 06:22:02;;;;;;;4.43;1.60;;;15.70;99.90;;;;;;5044983;28;20453;-49
2022/06/10 06:24:30;;;;;;;3.80;1.60;;;15.80;99.90;;;;;;5043916;28;20462;-49
2022/06/10 06:26:57;;;;;;;4.90;2.10;;;15.90;99.90;;;;;;5049846;28;20457;-49
2022/06/10 06:29:24;;;;;;;2.77;1.57;;;15.90;99.90;;;;;;5047339;28;20493;-49
2022/06/10 06:31:52;;;;;;;6.03;2.07;;;16.00;99.90;;;;;;5048450;28;20473;-49
2022/06/10 06:34:20;;;;;;;3.13;1.53;;;16.00;99.90;;;;;;5049394;28;20798;-50
2022/06/10 06:36:48;;;;;;;11.33;2.30;;;16.10;99.90;;;;;;5049201;28;20493;-49
2022/06/10 06:39:17;;;;;;;5.33;1.80;;;16.20;99.90;;;;;;5048269;28;20458;-49
2022/06/10 06:41:45;;;;;;;3.13;1.70;;;16.20;99.90;;;;;;5040906;28;20462;-49
2022/06/10 06:44:12;;;;;;;4.70;1.77;;;16.20;99.90;;;;;;5049253;28;21033;-49
2022/06/10 06:46:41;;;;;;;6.23;1.53;;;16.30;91.80;;;;;;5049252;28;20466;-50
2022/06/10 06:49:10;;;;;;;5.77;2.27;;;16.30;21.90;;;;;;5040216;28;20888;-50
2022/06/10 06:51:38;;;;;;;12.13;2.60;;;16.40;84.90;;;;;;5036636;28;20491;-49
2022/06/10 06:54:05;;;;;;;6.07;2.33;;;16.50;22.30;;;;;;5042317;28;20462;-49
2022/06/10 06:56:32;;;;;;;3.10;1.70;;;16.50;35.20;;;;;;5042040;28;20485;-50
2022/06/10 06:59:00;;;;;;;9.57;2.10;;;16.60;28.70;;;;;;5043354;28;20510;-49
2022/06/10 07:01:26;;;;;;;2.30;1.53;;;16.60;24.80;;;;;;5043963;28;20449;-49
2022/06/10 07:03:53;;;;;;;7.50;2.20;;;16.70;23.40;;;;;;5045281;28;20450;-49
2022/06/10 07:06:20;;;;;;;6.93;2.17;;;16.80;26.10;;;;;;5050632;28;20538;-48
2022/06/10 07:08:46;;;;;;;3.93;1.53;;;16.80;32.20;;;;;;5047391;28;20511;-49
2022/06/10 07:11:13;;;;;;;4.50;1.90;;;16.80;45.30;;;;;;5042984;28;20463;-49
2022/06/10 07:13:40;;;;;;;6.60;1.90;;;16.90;42.60;;;;;;5049918;28;20535;-50
2022/06/10 07:16:08;;;;;;;3.67;2.30;;;17.00;52.30;;;;;;5046059;28;20881;-49
2022/06/10 07:18:36;;;;;;;4.30;1.30;;;17.10;59.10;;;;;;5050569;28;20951;-48
2022/06/10 07:21:02;;;;;;;7.60;1.63;;;17.20;71.50;;;;;;5049715;28;20450;-50
2022/06/10 07:23:29;;;;;;;3.47;1.50;;;17.20;84.00;;;;;;5049477;28;20450;-49
2022/06/10 07:25:56;;;;;;;3.53;1.67;;;17.30;76.10;;;;;;5051632;28;20515;-50
2022/06/10 07:28:23;;;;;;;3.43;1.63;;;17.40;84.30;;;;;;5044905;28;20872;-49
2022/06/10 07:30:50;;;;;;;7.30;1.80;;;17.40;84.00;;;;;;5053059;28;20511;-49
2022/06/10 07:33:18;;;;;;;12.90;2.30;;;17.40;77.60;;;;;;5046614;28;20477;-48
2022/06/10 07:35:44;;;;;;;3.77;1.60;;;17.40;78.60;;;;;;5054016;28;20503;-49
2022/06/10 07:38:12;;;;;;;4.37;1.90;;;17.50;89.70;;;;;;5045813;28;20482;-49
2022/06/10 07:43:25;;;;;;;2.53;1.27;;;17.70;99.90;;;;;;5042652;28;20988;-49
2022/06/10 07:45:52;;;;;;;4.30;1.77;;;17.80;99.90;;;;;;5048145;28;20457;-49
2022/06/10 07:48:21;;;;;;;4.53;1.60;;;17.80;99.90;;;;;;5050861;28;21153;-49
2022/06/10 07:50:49;;;;;;;6.53;1.90;;;17.90;99.90;;;;;;5049691;28;20504;-49
2022/06/10 07:53:18;;;;;;;4.60;1.50;;;17.90;99.90;;;;;;5047230;28;20904;-48
2022/06/10 07:55:46;;;;;;;8.60;1.90;;;18.00;99.90;;;;;;5047977;28;20519;-50
2022/06/10 07:58:15;;;;;;;4.17;1.90;;;18.10;99.90;;;;;;5046532;28;20879;-49
2022/06/10 08:00:42;;;;;;;15.03;1.40;;;18.10;99.90;;;;;;5048414;28;20491;-49
2022/06/10 08:03:09;;;;;;;5.97;1.80;;;18.20;99.90;;;;;;5048099;28;20500;-49
2022/06/10 08:05:37;;;;;;;6.60;1.93;;;18.20;99.90;;;;;;5042658;28;20462;-49
2022/06/10 08:08:04;;;;;;;6.47;1.87;;;18.30;99.90;;;;;;5052150;28;20477;-49
2022/06/10 08:10:35;;;;;;;7.40;1.87;;;18.40;99.90;;;;;;5042983;28;20461;-50
2022/06/10 08:13:03;;;;;;;18.50;1.97;;;18.50;99.90;;;;;;5044241;28;20560;-50
2022/06/10 08:15:30;;;;;;;11.13;2.00;;;18.50;99.90;;;;;;5050975;28;20474;-48
2022/06/10 08:17:57;;;;;;;6.23;2.50;;;18.50;99.90;;;;;;5046704;28;20497;-49
2022/06/10 08:23:10;;;;;;;5.80;1.57;;;18.60;99.90;;;;;;5047238;28;21021;-49
2022/06/10 08:25:37;;;;;;;7.27;2.40;;;18.70;99.90;;;;;;5044751;28;20554;-49
2022/06/10 08:28:04;;;;;;;7.97;1.87;;;18.70;99.90;;;;;;5046790;28;20528;-49
2022/06/10 08:30:31;;;;;;;8.07;1.60;;;18.80;99.90;;;;;;5047965;28;20466;-49
2022/06/10 08:32:57;;;;;;;5.40;1.50;;;18.90;99.90;;;;;;5041556;28;20501;-49
2022/06/10 08:35:24;;;;;;;10.83;1.70;;;18.90;99.90;;;;;;5051144;28;20499;-49
2022/06/10 08:37:50;;;;;;;6.40;1.93;;;19.00;99.90;;;;;;5043726;28;21052;-49
2022/06/10 08:40:23;;;;;;;4.97;1.50;;;18.90;99.90;;;;;;5047982;28;20493;-49
2022/06/10 08:42:54;;;;;;;9.50;2.27;;;18.90;99.90;;;;;;5045574;28;20981;-50
2022/06/10 08:45:31;;;;;;;9.27;2.10;;;19.00;99.90;;;;;;5041407;28;20461;-48
2022/06/10 08:48:16;;;;;;;8.33;1.83;;;19.10;99.90;;;;;;5046941;28;20481;-48
2022/06/10 08:50:55;;;;;;;5.27;1.60;;;19.20;99.90;;;;;;5049607;28;20458;-49
2022/06/10 08:53:55;;;;;;;6.83;1.87;;;19.30;99.90;;;;;;5047855;28;20535;-49
2022/06/10 08:56:28;;;;;;;6.50;1.83;;;19.30;99.90;;;;;;5049133;28;20473;-49
2022/06/10 08:59:00;;;;;;;3.17;1.37;;;19.40;99.90;;;;;;5052296;28;20556;-49
2022/06/10 09:01:30;;;;;;;8.30;1.83;;;19.50;99.90;;;;;;5050558;28;20867;-49
2022/06/10 09:04:03;;;;;;;9.00;2.60;;;19.60;99.90;;;;;;5049329;28;20788;-49
2022/06/10 09:06:35;;;;;;;12.23;2.37;;;19.70;99.90;;;;;;5045573;28;20490;-49
2022/06/10 09:09:04;;;;;;;7.30;2.00;;;19.70;99.90;;;;;;5049790;28;20470;-49
2022/06/10 09:11:37;;;;;;;4.70;1.60;;;19.80;99.90;;;;;;5049940;28;20568;-50
2022/06/10 09:14:12;;;;;;;9.87;1.90;;;19.80;99.90;;;;;;5048888;28;21072;-49
2022/06/10 09:16:43;;;;;;;6.93;1.97;;;20.00;99.90;;;;;;5050605;28;20473;-49
2022/06/10 09:19:16;;;;;;;13.93;1.87;;;20.00;99.90;;;;;;5049872;28;20454;-49
2022/06/10 09:21:52;;;;;;;9.03;2.20;;;20.20;99.90;;;;;;5051442;28;20461;-49
2022/06/10 09:24:24;;;;;;;11.60;2.07;;;20.20;99.90;;;;;;5048673;28;20982;-49
2022/06/10 09:27:01;;;;;;;7.13;2.00;;;20.20;99.90;;;;;;5049433;28;21041;-49
2022/06/10 09:29:28;;;;;;;6.87;1.80;;;20.30;99.90;;;;;;5050399;28;20940;-49
2022/06/10 09:32:03;;;;;;;5.17;1.43;;;20.40;99.90;;;;;;5050198;28;20488;-49
2022/06/10 09:34:39;;;;;;;5.97;2.00;;;20.50;99.90;;;;;;5046909;28;21068;-49
2022/06/10 09:37:16;;;;;;;14.13;1.90;;;20.50;1.40;;;;;;5045843;28;20894;-49
2022/06/10 09:42:50;;;;;;;8.80;1.87;;;20.70;99.90;;;;;;5049062;28;20437;-49
2022/06/10 09:45:23;;;;;;;7.63;1.70;;;20.80;99.90;;;;;;5046818;28;20496;-49
2022/06/10 09:48:02;;;;;;;5.67;2.67;;;20.90;99.90;;;;;;5046991;28;20562;-50
2022/06/10 09:50:34;;;;;;;9.17;2.07;;;21.00;99.90;;;;;;5047798;28;20480;-49
2022/06/10 09:53:20;;;;;;;4.77;1.50;;;21.20;99.90;;;;;;5044616;28;20910;-49
2022/06/10 09:55:58;;;;;;;6.40;1.87;;;21.20;99.90;;;;;;5042566;28;21001;-49
2022/06/10 09:58:39;;;;;;;6.50;1.80;;;21.20;99.90;;;;;;5049347;28;20457;-49
2022/06/10 10:01:14;;;;;;;6.53;1.80;;;21.10;99.90;;;;;;5051882;28;20457;-49
2022/06/10 10:04:03;;;;;;;2.37;1.50;;;21.20;99.90;;;;;;5044962;28;20482;-49
2022/06/10 10:06:36;;;;;;;7.17;2.07;;;21.20;99.90;;;;;;5047187;28;20864;-49
2022/06/10 10:09:13;;;;;;;6.30;1.80;;;21.20;99.90;;;;;;5047650;28;20454;-49
2022/06/10 10:11:46;;;;;;;5.90;1.73;;;21.10;99.90;;;;;;5043057;28;21098;-49
2022/06/10 10:14:23;;;;;;;5.60;1.97;;;21.20;99.90;;;;;;5047803;28;20466;-49
2022/06/10 10:17:07;;;;;;;9.50;1.60;;;21.30;99.90;;;;;;5046224;28;20542;-49
2022/06/10 10:19:52;;;;;;;5.43;1.60;;;21.50;99.90;;;;;;5049705;28;20461;-49
2022/06/10 10:22:43;;;;;;;4.73;1.63;;;21.50;99.90;;;;;;5044422;28;20453;-49
2022/06/10 10:25:16;;;;;;;5.03;1.70;;;21.70;99.90;;;;;;5046479;28;20468;-50
2022/06/10 10:27:44;;;;;;;6.60;1.83;;;21.80;99.90;;;;;;5048146;28;20551;-49
2022/06/10 10:30:20;;;;;;;9.27;1.73;;;21.90;99.90;;;;;;5050104;28;20478;-48
2022/06/10 10:32:52;;;;;;;5.77;1.77;;;22.10;99.90;;;;;;5048074;28;20465;-49
2022/06/10 10:35:21;;;;;;;12.93;2.17;;;22.20;99.90;;;;;;5050338;28;20531;-50
2022/06/10 10:37:54;;;;;;;4.77;2.13;;;22.30;99.90;;;;;;5046092;28;20863;-50
2022/06/10 10:40:23;;;;;;;1.77;1.20;;;22.30;99.90;;;;;;5046513;28;20940;-53
2022/06/10 10:42:52;;;;;;;5.20;1.83;;;22.20;99.90;;;;;;5048117;28;20446;-49
2022/06/10 10:45:24;;;;;;;5.50;1.70;;;22.00;99.90;;;;;;5052281;28;21239;-49
2022/06/10 10:47:55;;;;;;;7.60;2.20;;;21.80;99.90;;;;;;5053412;28;20477;-49
2022/06/10 10:50:28;;;;;;;12.37;2.23;;;21.80;99.90;;;;;;5049927;28;20458;-49
2022/06/10 10:52:55;;;;;;;8.33;1.90;;;21.80;99.90;;;;;;5052413;28;20554;-48
2022/06/10 10:55:26;;;;;;;8.80;2.00;;;21.90;99.90;;;;;;5047701;28;20458;-49
2022/06/10 10:58:03;;;;;;;11.03;2.00;;;22.00;99.90;;;;;;5048553;28;21041;-49
2022/06/10 11:00:37;;;;;;;6.73;1.63;;;22.10;99.90;;;;;;5048656;28;20514;-49
2022/06/10 11:03:04;;;;;;;9.70;2.07;;;22.10;99.90;;;;;;5052601;28;20503;-49
2022/06/10 11:05:35;;;;;;;6.97;1.93;;;22.10;99.90;;;;;;5042287;28;20872;-49
2022/06/10 11:08:13;;;;;;;5.53;1.83;;;22.20;99.90;;;;;;5051604;28;20477;-49
2022/06/10 11:10:50;;;;;;;7.63;2.43;;;22.30;99.90;;;;;;5048928;28;20464;-49
2022/06/10 11:13:25;;;;;;;14.97;2.17;;;22.50;99.90;;;;;;5046426;28;20989;-49
2022/06/10 11:15:53;;;;;;;7.60;1.60;;;22.60;99.90;;;;;;5045472;28;20438;-49
2022/06/10 11:18:20;;;;;;;6.37;1.80;;;22.70;99.90;;;;;;5051190;28;20531;-49
2022/06/10 11:20:47;;;;;;;4.00;1.30;;;22.70;99.90;;;;;;5048152;28;21043;-48
2022/06/10 11:23:22;;;;;;;2.70;1.40;;;22.70;99.90;;;;;;5053167;28;20516;-49
2022/06/10 11:26:04;;;;;;;5.33;1.30;;;22.80;99.90;;;;;;5053734;28;20452;-49
2022/06/10 11:28:37;;;;;;;5.20;1.47;;;22.80;99.90;;;;;;5053146;28;20483;-49
2022/06/10 11:31:18;;;;;;;7.60;1.83;;;22.80;99.90;;;;;;5053154;28;21053;-49
2022/06/10 11:33:47;;;;;;;3.13;0.73;;;22.90;99.90;;;;;;5054243;28;20481;-50
2022/06/10 11:36:21;;;;;;;5.50;1.80;;;23.00;99.90;;;;;;5050806;28;20848;-49
2022/06/10 11:38:51;;;;;;;3.27;1.20;;;23.10;99.90;;;;;;5051611;28;21009;-49
2022/06/10 11:41:28;;;;;;;3.90;0.80;;;23.20;99.90;;;;;;5051598;28;20507;-48
2022/06/10 11:44:02;;;;;;;2.73;1.30;;;23.30;99.90;;;;;;5052594;28;20457;-49
2022/06/10 11:46:37;;;;;;;8.13;1.20;;;23.30;99.90;;;;;;5053030;28;20991;-48
2022/06/10 11:49:13;;;;;;;5.50;1.50;;;23.30;99.90;;;;;;5050639;28;20833;-49
2022/06/10 11:51:45;;;;;;;3.70;1.47;;;23.30;99.90;;;;;;5046385;28;20959;-48
2022/06/10 11:54:26;;;;;;;3.87;1.37;;;23.40;99.90;;;;;;5052187;28;20489;-48
2022/06/10 11:59:57;;;;;;;3.13;1.40;;;23.40;99.90;;;;;;5046177;28;20955;-49
2022/06/10 12:02:31;;;;;;;8.23;1.73;;;23.50;99.90;;;;;;5048583;28;20516;-49
2022/06/10 12:05:07;;;;;;;11.57;1.50;;;23.60;99.90;;;;;;5046960;28;20443;-48
2022/06/10 12:07:38;;;;;;;6.33;1.27;;;23.80;99.90;;;;;;5044684;28;20896;-48
2022/06/10 12:10:08;;;;;;;6.77;1.40;;;23.80;99.90;;;;;;5050361;28;20462;-48
2022/06/10 12:12:41;;;;;;;5.40;1.50;;;23.70;99.90;;;;;;5039259;28;20961;-50
2022/06/10 12:15:19;;;;;;;3.80;1.30;;;23.60;99.90;;;;;;5052324;28;20469;-49
2022/06/10 12:17:51;;;;;;;8.07;1.73;;;23.60;99.90;;;;;;5048575;28;20485;-49
2022/06/10 12:20:27;;;;;;;5.33;1.30;;;23.70;99.90;;;;;;5046756;28;20993;-49
2022/06/10 12:22:54;;;;;;;8.63;2.33;;;23.80;99.90;;;;;;5039758;28;20431;-49
2022/06/10 12:25:29;;;;;;;7.07;1.60;;;23.80;99.90;;;;;;5045795;28;20449;-50
2022/06/10 12:28:01;;;;;;;5.47;1.57;;;23.90;99.90;;;;;;5047900;28;20469;-48
2022/06/10 12:30:36;;;;;;;10.97;1.43;;;23.90;99.90;;;;;;5049328;28;20508;-48
2022/06/10 12:33:13;;;;;;;9.80;1.20;;;24.00;99.90;;;;;;5044760;28;20503;-49
2022/06/10 12:35:43;;;;;;;8.10;1.20;;;24.10;99.90;;;;;;5047657;28;20470;-48
2022/06/10 12:38:16;;;;;;;2.97;1.20;;;24.10;99.90;;;;;;5050929;28;20540;-49
2022/06/10 12:40:47;;;;;;;1.73;1.23;;;24.20;99.90;;;;;;5043969;28;20514;-49
2022/06/10 12:43:19;;;;;;;2.20;0.83;;;24.30;99.90;;;;;;5050928;28;20458;-48
2022/06/10 12:45:48;;;;;;;3.83;1.43;;;24.30;99.90;;;;;;5050501;28;20462;-49
2022/06/10 12:48:18;;;;;;;4.20;1.40;;;24.30;99.90;;;;;;5051174;28;21049;-48
2022/06/10 12:50:56;;;;;;;2.80;1.10;;;24.30;99.90;;;;;;5047458;28;20462;-49
2022/06/10 12:53:35;;;;;;;6.47;1.30;;;24.30;99.90;;;;;;5051303;28;20462;-48
2022/06/10 12:56:18;;;;;;;5.80;1.30;;;24.50;99.90;;;;;;5049381;28;20488;-48
2022/06/10 12:58:49;;;;;;;4.93;1.10;;;24.60;99.90;;;;;;5045431;28;20482;-49
2022/06/10 13:01:19;;;;;;;5.93;1.00;;;24.50;99.90;;;;;;5051099;28;20523;-49
2022/06/10 13:03:48;;;;;;;6.10;1.50;;;24.80;99.90;;;;;;5051030;28;20458;-48
2022/06/10 13:06:30;;;;;;;6.73;1.83;;;24.80;99.90;;;;;;5049015;28;20457;-48
2022/06/10 13:09:00;;;;;;;4.40;1.33;;;24.80;99.90;;;;;;5050066;28;20466;-48
2022/06/10 13:11:33;;;;;;;4.70;1.23;;;24.90;99.90;;;;;;5041484;28;20622;-49
2022/06/10 13:14:22;;;;;;;4.77;1.60;;;24.90;99.90;;;;;;5051616;28;20485;-49
2022/06/10 13:17:14;;;;;;;5.30;1.60;;;24.80;99.90;;;;;;5034699;28;20485;-49
2022/06/10 13:20:02;;;;;;;5.97;1.50;;;24.90;99.90;;;;;;5041833;28;20809;-49
2022/06/10 13:22:33;;;;;;;3.40;1.43;;;24.90;99.90;;;;;;5049553;28;20465;-49
2022/06/10 13:25:23;;;;;;;3.73;1.50;;;24.90;99.90;;;;;;5046696;28;20446;-49